Time;durP1;ratioP1;P1;durP2;ratioP2;P2;SDS_P1;SDS_P2;PMS_P1;PMS_P2;Temp;Humidity;BMP_temperature;BMP_pressure;BME280_temperature;BME280_humidity;BME280_pressure;Samples;Min_cycle;Max_cycle;Signal;HPM_P1;HPM_P2
2023/04/16 00:01:12;;;;;;;12.25;8.43;;;;;;;;;;4985938;28;20478;-84
2023/04/16 00:03:38;;;;;;;12.25;7.90;;;;;;;;;;4985999;28;20030;-84
2023/04/16 00:06:04;;;;;;;14.38;8.00;;;;;;;;;;4983851;28;20124;-85
2023/04/16 00:08:30;;;;;;;13.25;7.47;;;;;;;;;;4986974;28;20030;-85
2023/04/16 00:10:56;;;;;;;14.15;7.65;;;;;;;;;;4989233;28;20019;-84
2023/04/16 00:13:21;;;;;;;8.93;6.10;;;;;;;;;;4973082;28;20482;-83
2023/04/16 00:15:47;;;;;;;9.23;5.43;;;;;;;;;;4994852;28;20033;-84
2023/04/16 00:18:12;;;;;;;7.05;4.80;;;;;;;;;;4986769;28;20030;-84
2023/04/16 00:20:37;;;;;;;11.32;7.57;;;;;;;;;;4971800;28;20072;-83
2023/04/16 00:23:03;;;;;;;12.55;7.60;;;;;;;;;;4986182;28;20379;-83
2023/04/16 00:25:28;;;;;;;11.30;6.38;;;;;;;;;;4990931;28;20032;-84
2023/04/16 00:27:53;;;;;;;7.75;4.97;;;;;;;;;;4992232;28;20113;-83
2023/04/16 00:30:19;;;;;;;7.63;5.30;;;;;;;;;;4975530;28;20110;-83
2023/04/16 00:32:44;;;;;;;7.80;5.70;;;;;;;;;;4993726;28;20384;-85
2023/04/16 00:35:10;;;;;;;7.57;4.90;;;;;;;;;;4992096;28;20556;-83
2023/04/16 00:37:35;;;;;;;13.40;7.75;;;;;;;;;;4970689;28;20034;-83
2023/04/16 00:40:01;;;;;;;13.07;7.22;;;;;;;;;;4989603;28;20049;-83
2023/04/16 00:42:26;;;;;;;7.28;4.57;;;;;;;;;;4985943;28;20023;-83
2023/04/16 00:44:51;;;;;;;9.50;5.50;;;;;;;;;;4968645;28;20479;-84
2023/04/16 00:47:18;;;;;;;15.55;7.20;;;;;;;;;;4967689;28;21351;-83
2023/04/16 00:49:44;;;;;;;10.48;6.07;;;;;;;;;;4982736;28;20022;-83
2023/04/16 00:52:10;;;;;;;12.50;7.25;;;;;;;;;;4984828;28;20050;-83
2023/04/16 00:54:36;;;;;;;11.57;6.53;;;;;;;;;;4967449;28;20022;-83
2023/04/16 00:57:02;;;;;;;12.73;5.78;;;;;;;;;;4984844;28;20022;-82
2023/04/16 00:59:28;;;;;;;13.38;8.20;;;;;;;;;;4986168;28;20117;-83
2023/04/16 01:01:53;;;;;;;12.93;6.88;;;;;;;;;;4990560;28;20034;-81
2023/04/16 01:04:19;;;;;;;11.45;6.95;;;;;;;;;;4968130;28;21188;-82
2023/04/16 01:06:44;;;;;;;12.65;6.50;;;;;;;;;;4969923;28;20061;-81
2023/04/16 01:09:13;;;;;;;9.43;5.88;;;;;;;;;;4987973;28;20030;-81
2023/04/16 01:11:38;;;;;;;11.95;7.43;;;;;;;;;;4971479;28;20679;-82
2023/04/16 01:14:04;;;;;;;16.20;7.55;;;;;;;;;;4986474;28;20042;-84
2023/04/16 01:16:31;;;;;;;12.07;6.70;;;;;;;;;;4987766;28;20478;-84
2023/04/16 01:18:56;;;;;;;9.75;5.32;;;;;;;;;;4988784;28;20089;-85
2023/04/16 01:21:21;;;;;;;8.25;5.72;;;;;;;;;;4989114;28;20018;-85
2023/04/16 01:23:47;;;;;;;9.43;5.88;;;;;;;;;;4988696;28;20027;-84
2023/04/16 01:26:12;;;;;;;9.18;5.93;;;;;;;;;;4972089;28;20045;-84
2023/04/16 01:28:38;;;;;;;6.13;5.35;;;;;;;;;;4970896;28;20045;-83
2023/04/16 01:31:03;;;;;;;9.57;4.82;;;;;;;;;;4972703;28;20029;-84
2023/04/16 01:33:28;;;;;;;6.97;5.05;;;;;;;;;;4971292;28;20676;-84
2023/04/16 01:35:54;;;;;;;9.90;5.95;;;;;;;;;;4976151;28;20021;-83
2023/04/16 01:38:19;;;;;;;9.88;5.82;;;;;;;;;;4990661;28;20467;-85
2023/04/16 01:40:44;;;;;;;4.70;2.90;;;;;;;;;;4991826;28;20117;-85
2023/04/16 01:43:10;;;;;;;11.65;5.45;;;;;;;;;;4973026;28;20118;-83
2023/04/16 01:45:35;;;;;;;9.95;6.15;;;;;;;;;;4989265;28;20050;-85
2023/04/16 07:17:03;;;;;;;19.02;9.23;;;;;;;;;;5006058;28;20069;-86
2023/04/16 07:19:31;;;;;;;11.90;6.90;;;;;;;;;;5008612;28;20121;-82
2023/04/16 07:21:57;;;;;;;19.95;9.77;;;;;;;;;;5000657;28;20034;-83
2023/04/16 07:24:23;;;;;;;20.85;10.85;;;;;;;;;;4997070;28;20022;-83
2023/04/16 07:26:48;;;;;;;21.42;11.02;;;;;;;;;;5000207;28;20029;-86
2023/04/16 07:29:13;;;;;;;19.55;10.15;;;;;;;;;;5000726;28;20042;-85
2023/04/16 07:31:39;;;;;;;20.60;9.75;;;;;;;;;;5007772;28;20027;-85
2023/04/16 07:34:04;;;;;;;23.45;11.05;;;;;;;;;;5017347;28;20093;-84
2023/04/16 07:36:30;;;;;;;22.23;8.35;;;;;;;;;;4983793;28;20026;-84
2023/04/16 07:38:56;;;;;;;21.73;10.82;;;;;;;;;;4997722;28;20026;-85
2023/04/16 07:41:21;;;;;;;21.42;9.90;;;;;;;;;;5013191;28;20113;-85
2023/04/16 07:43:46;;;;;;;23.35;12.57;;;;;;;;;;5003896;28;20030;-85
2023/04/16 07:46:12;;;;;;;20.25;7.63;;;;;;;;;;5021712;28;20025;-84
2023/04/16 07:48:37;;;;;;;21.60;9.30;;;;;;;;;;4993064;28;20023;-85
2023/04/16 07:51:02;;;;;;;25.33;11.48;;;;;;;;;;5002141;28;20128;-86
2023/04/16 07:53:28;;;;;;;18.50;9.63;;;;;;;;;;4988494;28;20022;-85
2023/04/16 07:55:53;;;;;;;19.95;8.60;;;;;;;;;;4981112;28;20065;-85
2023/04/16 07:58:18;;;;;;;13.88;7.78;;;;;;;;;;4980921;28;20496;-84
2023/04/16 08:00:44;;;;;;;11.07;7.55;;;;;;;;;;4990560;28;20034;-84
2023/04/16 08:03:10;;;;;;;17.83;8.63;;;;;;;;;;5001266;28;20034;-83
2023/04/16 08:05:35;;;;;;;9.48;6.00;;;;;;;;;;5005328;28;20022;-82
2023/04/16 08:08:00;;;;;;;17.30;9.43;;;;;;;;;;5000164;28;20036;-83
2023/04/16 08:10:26;;;;;;;13.77;7.15;;;;;;;;;;4985307;28;20434;-84
2023/04/16 08:12:52;;;;;;;16.27;9.25;;;;;;;;;;4979524;28;20545;-83
2023/04/16 08:15:18;;;;;;;17.63;9.27;;;;;;;;;;4976236;28;20069;-83
2023/04/16 08:17:43;;;;;;;7.70;4.72;;;;;;;;;;4980569;28;20089;-84
2023/04/16 08:20:09;;;;;;;11.00;7.15;;;;;;;;;;4990158;28;20019;-84
2023/04/16 08:22:34;;;;;;;11.18;7.32;;;;;;;;;;4999489;28;20033;-84
2023/04/16 08:25:00;;;;;;;13.43;7.95;;;;;;;;;;4997001;28;20157;-85
2023/04/16 08:27:25;;;;;;;11.13;6.45;;;;;;;;;;4997270;28;20094;-85
2023/04/16 08:29:51;;;;;;;10.30;6.25;;;;;;;;;;4997219;28;20033;-84
2023/04/16 08:32:16;;;;;;;12.75;5.47;;;;;;;;;;5005861;28;20030;-84
2023/04/16 08:34:42;;;;;;;10.43;5.85;;;;;;;;;;4997596;28;20108;-84
2023/04/16 08:37:08;;;;;;;18.70;8.75;;;;;;;;;;4999137;28;20549;-85
2023/04/16 08:39:34;;;;;;;8.82;5.65;;;;;;;;;;4999614;28;20033;-84
2023/04/16 08:42:03;;;;;;;14.65;7.82;;;;;;;;;;4983862;28;20117;-84
2023/04/16 08:44:35;;;;;;;17.35;9.15;;;;;;;;;;4981502;28;20019;-84
2023/04/16 08:47:01;;;;;;;10.77;5.72;;;;;;;;;;4998208;28;20050;-85
2023/04/16 08:49:26;;;;;;;13.32;7.05;;;;;;;;;;5006538;28;20422;-85
2023/04/16 08:51:55;;;;;;;13.05;8.15;;;;;;;;;;5006684;28;20147;-84
2023/04/16 08:54:51;;;;;;;15.60;7.70;;;;;;;;;;4999047;28;20165;-84
2023/04/16 08:57:18;;;;;;;13.05;6.68;;;;;;;;;;4997455;28;20054;-84
2023/04/16 08:59:46;;;;;;;12.40;6.97;;;;;;;;;;4998503;28;20495;-84
2023/04/16 09:02:12;;;;;;;12.20;6.35;;;;;;;;;;4981287;28;20037;-85
2023/04/16 09:04:38;;;;;;;13.43;6.60;;;;;;;;;;4998842;28;20026;-84
2023/04/16 09:07:07;;;;;;;15.43;7.50;;;;;;;;;;4997530;28;20671;-84
2023/04/16 09:09:32;;;;;;;17.52;6.40;;;;;;;;;;4979476;28;20082;-85
2023/04/16 09:11:58;;;;;;;16.10;5.22;;;;;;;;;;4998916;28;20371;-85
2023/04/16 09:14:24;;;;;;;16.00;8.32;;;;;;;;;;4982138;28;20046;-84
2023/04/16 09:16:52;;;;;;;17.42;9.57;;;;;;;;;;4999519;28;20022;-85
2023/04/16 09:19:18;;;;;;;15.07;8.55;;;;;;;;;;4999803;28;20035;-85
2023/04/16 09:21:46;;;;;;;15.00;7.53;;;;;;;;;;5000598;28;20037;-85
2023/04/16 09:24:11;;;;;;;14.30;8.60;;;;;;;;;;4998789;28;20027;-84
2023/04/16 09:26:37;;;;;;;12.35;6.88;;;;;;;;;;4996822;28;20030;-85
2023/04/16 09:29:03;;;;;;;17.92;9.23;;;;;;;;;;4980522;28;20022;-83
2023/04/16 09:31:28;;;;;;;19.15;6.85;;;;;;;;;;4979458;28;20030;-84
2023/04/16 09:34:20;;;;;;;19.58;9.15;;;;;;;;;;4978932;28;20034;-85
2023/04/16 09:36:46;;;;;;;11.70;5.68;;;;;;;;;;4970485;28;20130;-84
2023/04/16 09:39:18;;;;;;;15.32;7.10;;;;;;;;;;4978970;28;20030;-84
2023/04/16 09:41:46;;;;;;;17.45;8.90;;;;;;;;;;4981695;28;20034;-84
2023/04/16 09:44:11;;;;;;;18.55;7.70;;;;;;;;;;5000194;28;20026;-83
2023/04/16 09:46:40;;;;;;;18.92;8.10;;;;;;;;;;5000434;28;20177;-84
2023/04/16 09:49:16;;;;;;;17.20;7.75;;;;;;;;;;4997356;28;20046;-83
2023/04/16 09:51:51;;;;;;;18.08;8.95;;;;;;;;;;4980821;28;20031;-84
2023/04/16 09:54:19;;;;;;;12.43;7.03;;;;;;;;;;4998629;28;20025;-82
2023/04/16 09:56:45;;;;;;;17.10;8.55;;;;;;;;;;4983921;28;20289;-82
2023/04/16 09:59:18;;;;;;;12.30;7.63;;;;;;;;;;4984575;28;20185;-81
2023/04/16 10:01:45;;;;;;;17.77;7.68;;;;;;;;;;5000219;28;20023;-81
2023/04/16 10:04:59;;;;;;;17.67;8.40;;;;;;;;;;4986082;28;20030;-84
2023/04/16 10:07:48;;;;;;;16.92;7.22;;;;;;;;;;4971088;28;20044;-85
2023/04/16 10:10:14;;;;;;;12.88;7.55;;;;;;;;;;4996364;28;20040;-84
2023/04/16 10:12:40;;;;;;;18.20;9.15;;;;;;;;;;4979926;28;20031;-86
2023/04/16 10:15:06;;;;;;;14.98;6.90;;;;;;;;;;4995195;28;20355;-84
2023/04/16 10:17:32;;;;;;;15.25;8.77;;;;;;;;;;4999848;28;20019;-87
2023/04/16 10:20:17;;;;;;;12.65;2.95;;;;;;;;;;4978268;28;20361;-84
2023/04/16 10:22:42;;;;;;;15.07;6.70;;;;;;;;;;4979369;28;20383;-87
2023/04/16 10:25:09;;;;;;;13.45;6.53;;;;;;;;;;4976470;28;20033;-88
2023/04/16 10:31:46;;;;;;;18.95;6.97;;;;;;;;;;4993388;28;20770;-88
2023/04/16 10:48:41;;;;;;;14.23;6.78;;;;;;;;;;4954068;28;20143;-86
2023/04/16 10:51:53;;;;;;;10.18;5.38;;;;;;;;;;4939429;28;20093;-89
2023/04/16 10:54:34;;;;;;;12.23;6.30;;;;;;;;;;4953953;28;20031;-86
2023/04/16 10:57:08;;;;;;;15.85;7.15;;;;;;;;;;4957928;28;20041;-86
2023/04/16 10:59:38;;;;;;;13.18;6.20;;;;;;;;;;4975880;28;20033;-86
2023/04/16 11:02:15;;;;;;;12.00;6.00;;;;;;;;;;4971907;28;20088;-87
2023/04/16 11:04:49;;;;;;;15.00;6.95;;;;;;;;;;4979135;28;20661;-87
2023/04/16 11:11:17;;;;;;;10.45;4.75;;;;;;;;;;4958033;28;20114;-87
2023/04/16 11:14:16;;;;;;;10.23;5.72;;;;;;;;;;4897233;29;20034;-88
2023/04/16 11:17:01;;;;;;;10.82;4.82;;;;;;;;;;4896536;29;20064;-86
2023/04/16 11:19:29;;;;;;;6.57;3.97;;;;;;;;;;4895892;29;20092;-85
2023/04/16 11:21:55;;;;;;;6.32;3.75;;;;;;;;;;4901987;29;20043;-83
2023/04/16 11:24:20;;;;;;;6.53;3.88;;;;;;;;;;4901229;29;20048;-87
2023/04/16 11:26:54;;;;;;;13.38;6.35;;;;;;;;;;4943874;28;20491;-86
2023/04/16 11:29:21;;;;;;;9.43;4.88;;;;;;;;;;4964845;28;20027;-89
2023/04/16 11:32:05;;;;;;;9.30;5.15;;;;;;;;;;4979940;28;20506;-87
2023/04/16 11:35:22;;;;;;;11.07;6.38;;;;;;;;;;4989185;28;20096;-86
2023/04/16 11:37:56;;;;;;;5.22;3.10;;;;;;;;;;4972763;28;20041;-86
2023/04/16 11:40:21;;;;;;;8.55;4.55;;;;;;;;;;4982318;28;20126;-87
2023/04/16 11:42:54;;;;;;;6.93;3.67;;;;;;;;;;4983815;28;20050;-86
2023/04/16 11:45:29;;;;;;;8.93;3.92;;;;;;;;;;4984886;28;20022;-89
2023/04/16 11:47:57;;;;;;;9.20;5.03;;;;;;;;;;4995324;28;20019;-85
2023/04/16 11:50:27;;;;;;;8.95;4.47;;;;;;;;;;4987354;28;20100;-88
2023/04/16 11:52:54;;;;;;;7.28;4.30;;;;;;;;;;4983167;28;20037;-86
2023/04/16 11:55:21;;;;;;;6.78;4.38;;;;;;;;;;4983586;28;20033;-87
2023/04/16 11:57:47;;;;;;;7.78;4.13;;;;;;;;;;4997919;28;20066;-86
2023/04/16 12:00:13;;;;;;;8.05;5.15;;;;;;;;;;4996039;28;20010;-86
2023/04/16 12:02:43;;;;;;;7.93;3.63;;;;;;;;;;4982017;28;20034;-87
2023/04/16 12:05:48;;;;;;;8.07;3.83;;;;;;;;;;4974053;28;21149;-87
2023/04/16 12:08:35;;;;;;;7.40;3.42;;;;;;;;;;4883957;29;20025;-87
2023/04/16 12:11:00;;;;;;;7.38;3.60;;;;;;;;;;4897861;29;20033;-87
2023/04/16 12:13:29;;;;;;;9.27;4.35;;;;;;;;;;4950352;28;20130;-88
2023/04/16 12:15:55;;;;;;;7.28;3.60;;;;;;;;;;4980986;28;20062;-85
2023/04/16 12:18:28;;;;;;;5.75;3.75;;;;;;;;;;4980395;28;20398;-86
2023/04/16 12:20:56;;;;;;;9.68;4.88;;;;;;;;;;4980657;28;20026;-85
2023/04/16 12:23:25;;;;;;;5.57;2.95;;;;;;;;;;4999707;28;20018;-82
2023/04/16 12:25:53;;;;;;;5.97;3.17;;;;;;;;;;5007940;28;20026;-85
2023/04/16 12:28:34;;;;;;;5.65;2.70;;;;;;;;;;4991213;28;20119;-82
2023/04/16 12:31:01;;;;;;;4.03;2.90;;;;;;;;;;4982117;28;20030;-84
2023/04/16 12:33:26;;;;;;;6.00;3.78;;;;;;;;;;4975778;28;20023;-87
2023/04/16 12:35:52;;;;;;;4.68;3.05;;;;;;;;;;4989613;28;20095;-87
2023/04/16 12:38:26;;;;;;;4.28;3.00;;;;;;;;;;4963440;28;20022;-89
2023/04/16 12:40:55;;;;;;;6.57;3.08;;;;;;;;;;4963711;28;20086;-87
2023/04/16 12:43:21;;;;;;;6.47;3.97;;;;;;;;;;4963597;28;20026;-87
2023/04/16 12:45:49;;;;;;;8.98;4.28;;;;;;;;;;4973387;28;20030;-87
2023/04/16 12:48:14;;;;;;;7.07;4.25;;;;;;;;;;4969133;28;20511;-84
2023/04/16 12:51:01;;;;;;;7.50;4.28;;;;;;;;;;4972494;28;20026;-85
2023/04/16 12:53:30;;;;;;;7.80;4.53;;;;;;;;;;4972341;28;20535;-86
2023/04/16 12:56:24;;;;;;;4.90;3.55;;;;;;;;;;4957559;28;20109;-87
2023/04/16 12:59:19;;;;;;;8.45;4.30;;;;;;;;;;4970626;28;20113;-88
2023/04/16 13:01:54;;;;;;;10.85;4.75;;;;;;;;;;4973829;28;20054;-87
2023/04/16 13:04:22;;;;;;;8.15;5.00;;;;;;;;;;4974999;28;20022;-87
2023/04/16 13:10:39;;;;;;;12.15;4.20;;;;;;;;;;4949280;28;20060;-87
2023/04/16 13:13:31;;;;;;;5.65;3.55;;;;;;;;;;4966919;28;20043;-86
2023/04/16 13:16:05;;;;;;;8.90;4.03;;;;;;;;;;4925957;29;20052;-84
2023/04/16 13:18:43;;;;;;;7.57;3.78;;;;;;;;;;4930651;29;20032;-86
2023/04/16 13:52:18;;;;;;;9.73;5.00;;;;;;;;;;4969276;28;20050;-86
2023/04/16 13:54:44;;;;;;;10.52;5.82;;;;;;;;;;4964957;28;20035;-87
2023/04/16 13:57:11;;;;;;;11.60;5.60;;;;;;;;;;4962453;28;20118;-88
2023/04/16 13:59:37;;;;;;;10.50;6.25;;;;;;;;;;4964076;28;20038;-88
2023/04/16 14:02:04;;;;;;;10.23;4.47;;;;;;;;;;4964765;28;20510;-88
2023/04/16 14:04:32;;;;;;;7.88;3.90;;;;;;;;;;4965427;28;20114;-88
2023/04/16 14:06:59;;;;;;;9.02;4.68;;;;;;;;;;4966228;28;20113;-86
2023/04/16 14:09:30;;;;;;;8.65;5.00;;;;;;;;;;4963746;28;20636;-90
2023/04/16 14:22:16;;;;;;;12.73;6.45;;;;;;;;;;4977851;28;20054;-85
2023/04/16 14:24:42;;;;;;;12.07;5.93;;;;;;;;;;4959041;28;20041;-87
2023/04/16 14:27:08;;;;;;;10.23;5.00;;;;;;;;;;4961176;28;20024;-86
2023/04/16 14:29:35;;;;;;;14.70;6.38;;;;;;;;;;4977845;28;20046;-86
2023/04/16 14:32:00;;;;;;;10.90;6.07;;;;;;;;;;4958926;28;20105;-86
2023/04/16 14:34:26;;;;;;;12.75;4.70;;;;;;;;;;4959737;28;20069;-85
2023/04/16 14:37:07;;;;;;;12.52;6.65;;;;;;;;;;4958327;28;20031;-89
2023/04/16 14:39:33;;;;;;;16.95;8.52;;;;;;;;;;4974916;28;20018;-86
2023/04/16 14:41:58;;;;;;;13.55;6.85;;;;;;;;;;4959737;28;20533;-87
2023/04/16 14:44:27;;;;;;;14.18;6.68;;;;;;;;;;4961519;28;20137;-86
2023/04/16 14:47:10;;;;;;;;;;;;;;;;;;;;;
2023/04/16 14:49:45;;;;;;;14.75;9.13;;;;;;;;;;4982016;28;20034;-85
2023/04/16 14:59:50;;;;;;;18.73;7.45;;;;;;;;;;4943882;28;20071;-86
2023/04/16 15:02:18;;;;;;;20.05;8.15;;;;;;;;;;4920904;29;20076;-85
2023/04/16 15:04:44;;;;;;;14.75;7.38;;;;;;;;;;4930047;29;20031;-84
2023/04/16 15:08:04;;;;;;;17.58;7.97;;;;;;;;;;4919543;29;20036;-85
2023/04/16 16:05:40;;;;;;;27.33;9.50;;;;;;;;;;4968078;28;20050;-84
2023/04/16 16:08:05;;;;;;;14.85;8.00;;;;;;;;;;4986656;28;20402;-85
2023/04/16 16:10:31;;;;;;;22.92;9.75;;;;;;;;;;4971852;28;20027;-86
2023/04/16 16:12:56;;;;;;;26.35;11.18;;;;;;;;;;4924369;29;20849;-85
2023/04/16 16:15:22;;;;;;;23.10;11.63;;;;;;;;;;4940902;29;20391;-85
2023/04/16 16:17:47;;;;;;;21.77;10.93;;;;;;;;;;4946614;29;20335;-85
2023/04/16 16:20:13;;;;;;;7.72;5.32;;;;;;;;;;4955560;28;20083;-86
2023/04/16 16:22:39;;;;;;;18.30;8.93;;;;;;;;;;4936107;29;20024;-85
2023/04/16 16:25:06;;;;;;;27.85;11.23;;;;;;;;;;4935952;29;20031;-85
2023/04/16 16:27:31;;;;;;;27.60;12.65;;;;;;;;;;4935438;29;20024;-85
2023/04/16 16:29:57;;;;;;;30.42;13.18;;;;;;;;;;4936429;29;20039;-86
2023/04/16 16:32:22;;;;;;;21.65;11.85;;;;;;;;;;4923400;29;20070;-86
2023/04/16 16:34:47;;;;;;;24.05;10.52;;;;;;;;;;4924637;29;20717;-85
2023/04/16 16:37:13;;;;;;;21.58;10.32;;;;;;;;;;4942788;29;20055;-85
2023/04/16 16:39:38;;;;;;;31.75;11.52;;;;;;;;;;4943134;29;20032;-85
2023/04/16 16:42:03;;;;;;;27.77;9.93;;;;;;;;;;4943436;29;20062;-86
2023/04/16 16:44:29;;;;;;;26.67;11.02;;;;;;;;;;4947474;29;20391;-86
2023/04/16 16:46:55;;;;;;;23.83;12.60;;;;;;;;;;4944778;29;20056;-85
2023/04/16 16:49:20;;;;;;;26.27;12.85;;;;;;;;;;4946888;29;20031;-87
2023/04/16 16:51:47;;;;;;;26.15;12.00;;;;;;;;;;4947606;29;20042;-87
2023/04/16 16:54:13;;;;;;;26.73;10.77;;;;;;;;;;4934052;29;20030;-86
2023/04/16 16:56:41;;;;;;;24.08;11.07;;;;;;;;;;4947427;29;20023;-86
2023/04/16 16:59:07;;;;;;;34.25;12.45;;;;;;;;;;4948072;29;20038;-84
2023/04/16 17:01:33;;;;;;;29.40;11.75;;;;;;;;;;4944101;29;20173;-86
2023/04/16 17:03:58;;;;;;;21.85;11.73;;;;;;;;;;4940802;29;20780;-85
2023/04/16 17:06:24;;;;;;;23.95;10.93;;;;;;;;;;4923171;29;20040;-87
2023/04/16 17:08:49;;;;;;;26.92;12.20;;;;;;;;;;4927478;29;20082;-85
2023/04/16 17:11:15;;;;;;;26.80;12.20;;;;;;;;;;4930268;29;20076;-87
2023/04/16 17:13:41;;;;;;;24.65;11.95;;;;;;;;;;4932955;29;20016;-87
2023/04/16 17:16:06;;;;;;;21.08;10.77;;;;;;;;;;4937435;29;20154;-86
2023/04/16 17:18:32;;;;;;;27.92;12.85;;;;;;;;;;4932252;29;20028;-86
2023/04/16 17:20:58;;;;;;;23.85;12.27;;;;;;;;;;4931508;29;20032;-87
2023/04/16 17:23:23;;;;;;;25.15;12.60;;;;;;;;;;4918246;29;20119;-85
2023/04/16 17:25:48;;;;;;;25.08;13.80;;;;;;;;;;4931675;29;20039;-86
2023/04/16 17:28:14;;;;;;;29.60;12.95;;;;;;;;;;4927933;29;20047;-86
2023/04/16 17:30:40;;;;;;;21.77;10.77;;;;;;;;;;4928803;29;20079;-87
2023/04/16 17:33:05;;;;;;;25.60;12.02;;;;;;;;;;4925916;29;20031;-83
2023/04/16 17:35:31;;;;;;;25.42;13.77;;;;;;;;;;4933223;29;20038;-85
2023/04/16 17:37:56;;;;;;;21.52;10.77;;;;;;;;;;4925463;29;20115;-86
2023/04/16 17:40:21;;;;;;;25.92;12.65;;;;;;;;;;4907020;29;20860;-85
2023/04/16 17:42:48;;;;;;;22.52;11.93;;;;;;;;;;4911528;29;20056;-86
2023/04/16 17:45:13;;;;;;;22.27;11.90;;;;;;;;;;4925609;29;20502;-85
2023/04/16 17:47:39;;;;;;;23.08;12.35;;;;;;;;;;4913140;29;20111;-85
2023/04/16 17:50:06;;;;;;;35.83;13.15;;;;;;;;;;4914691;29;20019;-86
2023/04/16 17:52:31;;;;;;;24.45;11.15;;;;;;;;;;4928693;29;20061;-85
2023/04/16 17:55:00;;;;;;;21.80;10.10;;;;;;;;;;4926223;29;20538;-85
2023/04/16 17:57:26;;;;;;;26.15;12.40;;;;;;;;;;4925413;29;20028;-85
2023/04/16 17:59:51;;;;;;;27.38;12.48;;;;;;;;;;4930446;29;20039;-87
2023/04/16 18:02:17;;;;;;;22.48;10.75;;;;;;;;;;4929714;29;20028;-86
2023/04/16 18:04:42;;;;;;;23.48;12.45;;;;;;;;;;4936114;29;20027;-85
2023/04/16 18:07:08;;;;;;;26.20;13.40;;;;;;;;;;4948387;29;20103;-86
2023/04/16 18:09:33;;;;;;;22.67;11.63;;;;;;;;;;4947207;29;20023;-85
2023/04/16 18:11:58;;;;;;;23.30;12.05;;;;;;;;;;4945909;29;20015;-86
2023/04/16 18:14:24;;;;;;;21.02;12.18;;;;;;;;;;4938124;29;20043;-84
2023/04/16 18:16:49;;;;;;;22.38;11.05;;;;;;;;;;4947749;29;20034;-84
2023/04/16 18:19:15;;;;;;;23.73;12.30;;;;;;;;;;4946391;29;20391;-85
2023/04/16 18:21:47;;;;;;;25.70;12.70;;;;;;;;;;4940763;29;20166;-87
2023/04/16 18:24:14;;;;;;;19.52;11.00;;;;;;;;;;4931556;29;20034;-85
2023/04/16 18:26:49;;;;;;;24.10;12.07;;;;;;;;;;4950201;29;20035;-83
2023/04/16 18:29:32;;;;;;;22.98;11.77;;;;;;;;;;4947550;29;20030;-85
2023/04/16 18:31:58;;;;;;;26.05;13.00;;;;;;;;;;4929678;29;20427;-84
2023/04/16 18:34:24;;;;;;;25.33;11.52;;;;;;;;;;4946035;29;20087;-85
2023/04/16 18:36:50;;;;;;;22.05;10.40;;;;;;;;;;4946094;29;20448;-83
2023/04/16 18:39:15;;;;;;;24.92;11.80;;;;;;;;;;4947591;29;20039;-84
2023/04/16 18:41:41;;;;;;;23.40;11.40;;;;;;;;;;4948873;29;20027;-84
2023/04/16 18:44:18;;;;;;;26.88;12.23;;;;;;;;;;4947556;29;20023;-85
2023/04/16 18:46:44;;;;;;;20.63;10.25;;;;;;;;;;4943034;29;20035;-83
2023/04/16 18:49:10;;;;;;;25.42;11.52;;;;;;;;;;4945692;29;20078;-84
2023/04/16 18:51:35;;;;;;;22.65;12.43;;;;;;;;;;4943976;29;20031;-84
2023/04/16 18:54:00;;;;;;;21.42;10.95;;;;;;;;;;4942503;29;20500;-84
2023/04/16 18:56:28;;;;;;;23.52;12.38;;;;;;;;;;4944252;29;20019;-84
2023/04/16 18:58:53;;;;;;;20.88;12.05;;;;;;;;;;4952690;29;20047;-85
2023/04/16 19:01:18;;;;;;;21.33;11.55;;;;;;;;;;4953466;29;20019;-85
2023/04/16 19:03:44;;;;;;;22.48;11.23;;;;;;;;;;4955866;29;20091;-83
2023/04/16 19:06:09;;;;;;;21.60;11.38;;;;;;;;;;4953283;29;20043;-83
2023/04/16 19:08:35;;;;;;;20.90;10.68;;;;;;;;;;4954353;29;20024;-82
2023/04/16 19:11:00;;;;;;;17.90;9.95;;;;;;;;;;4945827;29;20043;-84
2023/04/16 19:13:26;;;;;;;19.23;9.65;;;;;;;;;;4955359;28;20057;-84
2023/04/16 19:15:56;;;;;;;19.80;10.90;;;;;;;;;;4953895;29;20038;-82
2023/04/16 19:18:22;;;;;;;22.17;11.27;;;;;;;;;;4936779;29;20051;-85
2023/04/16 19:20:47;;;;;;;26.23;12.48;;;;;;;;;;4956239;29;20030;-85
2023/04/16 19:23:14;;;;;;;20.48;11.57;;;;;;;;;;4954172;29;20016;-85
2023/04/16 19:25:39;;;;;;;23.73;13.05;;;;;;;;;;4943373;29;20059;-86
2023/04/16 19:28:05;;;;;;;27.40;12.50;;;;;;;;;;4950748;29;20043;-84
2023/04/16 19:30:30;;;;;;;25.02;11.30;;;;;;;;;;4945533;29;20439;-84
2023/04/16 19:32:55;;;;;;;24.05;12.55;;;;;;;;;;4950856;29;20038;-84
2023/04/16 19:35:21;;;;;;;25.35;13.45;;;;;;;;;;4946217;29;21662;-86
2023/04/16 19:37:46;;;;;;;28.73;14.05;;;;;;;;;;4947561;29;20034;-86
2023/04/16 19:40:12;;;;;;;27.95;12.88;;;;;;;;;;4946074;29;20054;-86
2023/04/16 19:42:37;;;;;;;29.52;12.27;;;;;;;;;;4949426;29;20476;-88
2023/04/16 19:45:03;;;;;;;27.45;13.23;;;;;;;;;;4940944;29;20023;-85
2023/04/16 19:47:28;;;;;;;24.98;12.00;;;;;;;;;;4944775;29;20036;-85
2023/04/16 19:49:54;;;;;;;28.30;12.48;;;;;;;;;;4944376;29;20031;-85
2023/04/16 19:52:19;;;;;;;29.83;14.20;;;;;;;;;;4940905;29;20102;-85
2023/04/16 19:54:45;;;;;;;27.25;14.90;;;;;;;;;;4948581;29;20038;-85
2023/04/16 19:57:10;;;;;;;23.65;13.13;;;;;;;;;;4944682;29;20033;-86
2023/04/16 19:59:37;;;;;;;30.15;13.30;;;;;;;;;;4947080;29;20027;-85
2023/04/16 20:02:02;;;;;;;28.13;14.00;;;;;;;;;;4947081;29;20448;-85
2023/04/16 20:04:27;;;;;;;24.95;14.38;;;;;;;;;;4972179;28;20086;-85
2023/04/16 20:06:53;;;;;;;36.33;15.20;;;;;;;;;;4965103;28;20046;-83
2023/04/16 20:09:19;;;;;;;25.27;12.50;;;;;;;;;;4949538;29;20122;-85
2023/04/16 20:11:45;;;;;;;31.02;14.10;;;;;;;;;;4931222;29;20020;-84
2023/04/16 20:14:10;;;;;;;27.58;13.85;;;;;;;;;;4944674;29;20023;-84
2023/04/16 20:16:37;;;;;;;26.88;14.15;;;;;;;;;;4950762;29;20038;-84
2023/04/16 20:19:03;;;;;;;26.35;13.38;;;;;;;;;;4960848;29;20031;-83
2023/04/16 20:21:28;;;;;;;26.77;12.25;;;;;;;;;;4945882;29;20035;-81
2023/04/16 20:23:53;;;;;;;27.70;13.43;;;;;;;;;;4948193;28;20369;-83
2023/04/16 20:26:19;;;;;;;29.80;13.73;;;;;;;;;;4944788;29;20039;-83
2023/04/16 20:28:44;;;;;;;25.02;13.88;;;;;;;;;;4943260;29;20038;-83
2023/04/16 20:31:10;;;;;;;29.30;13.90;;;;;;;;;;4944695;29;20038;-82
2023/04/16 20:33:37;;;;;;;22.48;13.60;;;;;;;;;;4941819;29;20047;-82
2023/04/16 20:36:03;;;;;;;24.30;12.55;;;;;;;;;;4944374;29;20683;-83
2023/04/16 20:38:31;;;;;;;33.45;13.55;;;;;;;;;;4949012;29;20027;-82
2023/04/16 20:41:08;;;;;;;25.10;13.10;;;;;;;;;;4947562;29;20067;-82
2023/04/16 20:43:39;;;;;;;25.20;13.77;;;;;;;;;;4944571;29;20024;-82
2023/04/16 20:46:07;;;;;;;26.02;13.40;;;;;;;;;;4942845;29;20084;-83
2023/04/16 20:48:33;;;;;;;25.95;13.82;;;;;;;;;;4943616;29;20035;-83
2023/04/16 20:51:01;;;;;;;24.05;12.75;;;;;;;;;;4944695;29;20376;-83
2023/04/16 20:53:27;;;;;;;24.92;12.35;;;;;;;;;;4944198;29;20110;-83
2023/04/16 20:55:53;;;;;;;30.25;13.70;;;;;;;;;;4935317;29;20050;-83
2023/04/16 20:58:18;;;;;;;25.80;12.70;;;;;;;;;;4928039;29;20035;-84
2023/04/16 21:01:34;;;;;;;19.77;10.55;;;;;;;;;;4928114;29;20045;-83
2023/04/16 21:03:59;;;;;;;21.98;11.02;;;;;;;;;;4946754;29;20031;-83
2023/04/16 21:06:24;;;;;;;20.48;11.02;;;;;;;;;;4925752;29;20028;-84
2023/04/16 21:08:50;;;;;;;23.73;10.73;;;;;;;;;;4928761;29;20024;-84
2023/04/16 21:11:15;;;;;;;20.30;11.57;;;;;;;;;;4937530;29;20031;-84
2023/04/16 21:13:41;;;;;;;19.67;11.07;;;;;;;;;;4940757;29;20034;-83
2023/04/16 21:16:08;;;;;;;27.77;12.82;;;;;;;;;;4939558;29;20059;-84
2023/04/16 21:18:35;;;;;;;17.90;10.50;;;;;;;;;;4942201;29;20031;-84
2023/04/16 21:21:09;;;;;;;20.13;11.73;;;;;;;;;;4941930;29;20060;-84
2023/04/16 21:23:34;;;;;;;16.65;9.80;;;;;;;;;;4941573;29;20055;-84
2023/04/16 21:26:00;;;;;;;22.30;11.65;;;;;;;;;;4941018;29;20062;-84
2023/04/16 21:28:25;;;;;;;18.13;10.50;;;;;;;;;;4944695;29;20415;-85
2023/04/16 21:30:51;;;;;;;25.88;11.90;;;;;;;;;;4930435;29;20141;-86
2023/04/16 21:33:17;;;;;;;22.92;11.13;;;;;;;;;;4941542;29;22321;-84
2023/04/16 21:35:42;;;;;;;19.92;11.77;;;;;;;;;;4946850;28;20063;-85
2023/04/16 21:40:54;;;;;;;21.80;10.85;;;;;;;;;;4992121;28;20061;-85
2023/04/16 21:43:20;;;;;;;21.95;10.82;;;;;;;;;;4996192;28;20030;-85
2023/04/16 21:45:46;;;;;;;28.75;12.30;;;;;;;;;;4995447;28;20026;-85
2023/04/16 21:48:12;;;;;;;24.83;11.68;;;;;;;;;;4981547;28;20033;-84
2023/04/16 21:50:37;;;;;;;21.95;11.23;;;;;;;;;;5071180;23;20050;-85
2023/04/16 21:53:05;;;;;;;18.98;10.70;;;;;;;;;;5016160;28;20041;-85
2023/04/16 21:55:31;;;;;;;17.48;10.07;;;;;;;;;;5014030;28;20049;-85
2023/04/16 21:57:57;;;;;;;17.65;10.60;;;;;;;;;;5016161;28;20021;-85
2023/04/16 22:00:25;;;;;;;19.73;9.57;;;;;;;;;;4998715;28;20092;-85
2023/04/16 22:02:55;;;;;;;20.05;11.27;;;;;;;;;;4997318;28;20081;-84
2023/04/16 22:05:22;;;;;;;17.65;9.82;;;;;;;;;;4994892;28;20467;-84
2023/04/16 22:07:47;;;;;;;19.42;10.07;;;;;;;;;;4995460;28;20026;-84
2023/04/16 22:10:13;;;;;;;17.13;10.13;;;;;;;;;;4994964;28;20030;-84
2023/04/16 22:12:38;;;;;;;20.35;9.98;;;;;;;;;;4997563;28;20053;-83
2023/04/16 22:15:06;;;;;;;22.50;11.30;;;;;;;;;;4995247;28;20041;-84
2023/04/16 22:17:33;;;;;;;18.08;9.38;;;;;;;;;;4995409;28;20050;-83